sensor_id;sensor_type;location;lat;lon;timestamp;P1;durP1;ratioP1;P2;durP2;ratioP2
39738;SDS011;25422;48.286;8.484;2024-03-22T00:01:52;9.40;;;7.00;;
39738;SDS011;25422;48.286;8.484;2024-03-22T00:04:18;10.35;;;7.45;;
39738;SDS011;25422;48.286;8.484;2024-03-22T00:06:44;9.55;;;7.47;;
39738;SDS011;25422;48.286;8.484;2024-03-22T00:09:10;11.50;;;7.72;;
39738;SDS011;25422;48.286;8.484;2024-03-22T00:11:36;8.60;;;7.20;;
39738;SDS011;25422;48.286;8.484;2024-03-22T00:14:04;10.15;;;7.07;;
39738;SDS011;25422;48.286;8.484;2024-03-22T00:16:29;14.75;;;7.75;;
39738;SDS011;25422;48.286;8.484;2024-03-22T00:18:55;11.65;;;8.60;;
39738;SDS011;25422;48.286;8.484;2024-03-22T00:21:23;11.45;;;8.15;;
39738;SDS011;25422;48.286;8.484;2024-03-22T00:23:48;13.43;;;8.98;;
39738;SDS011;25422;48.286;8.484;2024-03-22T00:26:14;13.75;;;9.05;;
39738;SDS011;25422;48.286;8.484;2024-03-22T00:28:40;12.50;;;10.27;;
39738;SDS011;25422;48.286;8.484;2024-03-22T00:31:05;11.27;;;9.32;;
39738;SDS011;25422;48.286;8.484;2024-03-22T00:33:30;12.70;;;9.02;;
39738;SDS011;25422;48.286;8.484;2024-03-22T00:35:56;17.25;;;9.77;;
39738;SDS011;25422;48.286;8.484;2024-03-22T00:38:22;12.68;;;8.55;;
39738;SDS011;25422;48.286;8.484;2024-03-22T00:40:48;10.80;;;8.45;;
39738;SDS011;25422;48.286;8.484;2024-03-22T00:43:13;12.13;;;8.57;;
39738;SDS011;25422;48.286;8.484;2024-03-22T00:45:38;13.38;;;9.05;;
39738;SDS011;25422;48.286;8.484;2024-03-22T00:48:04;11.70;;;9.60;;
39738;SDS011;25422;48.286;8.484;2024-03-22T00:50:30;13.43;;;10.15;;
39738;SDS011;25422;48.286;8.484;2024-03-22T00:52:55;15.75;;;9.60;;
39738;SDS011;25422;48.286;8.484;2024-03-22T00:55:21;11.00;;;9.15;;
39738;SDS011;25422;48.286;8.484;2024-03-22T00:57:47;12.75;;;9.77;;
39738;SDS011;25422;48.286;8.484;2024-03-22T01:00:13;17.15;;;10.18;;
39738;SDS011;25422;48.286;8.484;2024-03-22T01:02:39;13.68;;;9.80;;
39738;SDS011;25422;48.286;8.484;2024-03-22T01:05:05;12.38;;;9.57;;
39738;SDS011;25422;48.286;8.484;2024-03-22T01:07:30;15.40;;;10.45;;
39738;SDS011;25422;48.286;8.484;2024-03-22T01:09:56;13.32;;;10.30;;
39738;SDS011;25422;48.286;8.484;2024-03-22T01:12:21;13.90;;;10.10;;
39738;SDS011;25422;48.286;8.484;2024-03-22T01:14:47;13.80;;;10.10;;
39738;SDS011;25422;48.286;8.484;2024-03-22T01:17:12;15.75;;;10.57;;
39738;SDS011;25422;48.286;8.484;2024-03-22T01:19:37;17.30;;;11.52;;
39738;SDS011;25422;48.286;8.484;2024-03-22T01:22:03;13.57;;;10.45;;
39738;SDS011;25422;48.286;8.484;2024-03-22T01:24:28;20.38;;;11.15;;
39738;SDS011;25422;48.286;8.484;2024-03-22T01:26:54;16.92;;;10.38;;
39738;SDS011;25422;48.286;8.484;2024-03-22T01:29:20;15.70;;;10.40;;
39738;SDS011;25422;48.286;8.484;2024-03-22T01:31:45;12.90;;;9.85;;
39738;SDS011;25422;48.286;8.484;2024-03-22T01:34:11;15.32;;;10.25;;
39738;SDS011;25422;48.286;8.484;2024-03-22T01:36:36;14.15;;;10.35;;
39738;SDS011;25422;48.286;8.484;2024-03-22T01:39:01;14.82;;;11.27;;
39738;SDS011;25422;48.286;8.484;2024-03-22T01:41:27;16.60;;;11.63;;
39738;SDS011;25422;48.286;8.484;2024-03-22T01:43:53;17.58;;;10.48;;
39738;SDS011;25422;48.286;8.484;2024-03-22T01:46:18;17.13;;;11.15;;
39738;SDS011;25422;48.286;8.484;2024-03-22T01:48:43;13.88;;;10.48;;
39738;SDS011;25422;48.286;8.484;2024-03-22T01:51:09;14.25;;;10.57;;
39738;SDS011;25422;48.286;8.484;2024-03-22T01:53:35;14.98;;;10.80;;
39738;SDS011;25422;48.286;8.484;2024-03-22T01:56:02;18.13;;;11.60;;
39738;SDS011;25422;48.286;8.484;2024-03-22T01:58:28;15.20;;;11.43;;
39738;SDS011;25422;48.286;8.484;2024-03-22T02:00:54;17.90;;;11.50;;
39738;SDS011;25422;48.286;8.484;2024-03-22T02:03:19;17.00;;;11.23;;
39738;SDS011;25422;48.286;8.484;2024-03-22T02:05:45;18.33;;;11.27;;
39738;SDS011;25422;48.286;8.484;2024-03-22T02:08:10;15.73;;;11.35;;
39738;SDS011;25422;48.286;8.484;2024-03-22T02:10:36;17.20;;;10.88;;
39738;SDS011;25422;48.286;8.484;2024-03-22T02:13:01;14.52;;;11.45;;
39738;SDS011;25422;48.286;8.484;2024-03-22T02:15:27;19.88;;;12.40;;
39738;SDS011;25422;48.286;8.484;2024-03-22T02:17:52;19.17;;;11.55;;
39738;SDS011;25422;48.286;8.484;2024-03-22T02:20:17;16.80;;;11.85;;
39738;SDS011;25422;48.286;8.484;2024-03-22T02:22:43;17.55;;;11.73;;
39738;SDS011;25422;48.286;8.484;2024-03-22T02:25:08;19.10;;;12.75;;
39738;SDS011;25422;48.286;8.484;2024-03-22T02:27:34;23.92;;;13.13;;
39738;SDS011;25422;48.286;8.484;2024-03-22T02:30:00;15.48;;;11.82;;
39738;SDS011;25422;48.286;8.484;2024-03-22T02:32:25;15.35;;;11.52;;
39738;SDS011;25422;48.286;8.484;2024-03-22T02:34:50;17.10;;;11.48;;
39738;SDS011;25422;48.286;8.484;2024-03-22T02:37:16;18.63;;;11.50;;
39738;SDS011;25422;48.286;8.484;2024-03-22T02:39:41;17.58;;;11.65;;
39738;SDS011;25422;48.286;8.484;2024-03-22T02:42:08;20.38;;;12.25;;
39738;SDS011;25422;48.286;8.484;2024-03-22T02:44:33;18.80;;;11.68;;
39738;SDS011;25422;48.286;8.484;2024-03-22T02:46:58;16.98;;;12.13;;
39738;SDS011;25422;48.286;8.484;2024-03-22T02:49:25;22.10;;;11.68;;
39738;SDS011;25422;48.286;8.484;2024-03-22T02:51:50;26.40;;;12.50;;
39738;SDS011;25422;48.286;8.484;2024-03-22T02:54:16;18.65;;;12.65;;
39738;SDS011;25422;48.286;8.484;2024-03-22T02:56:41;18.80;;;12.23;;
39738;SDS011;25422;48.286;8.484;2024-03-22T02:59:07;15.65;;;12.15;;
39738;SDS011;25422;48.286;8.484;2024-03-22T03:01:32;18.25;;;12.02;;
39738;SDS011;25422;48.286;8.484;2024-03-22T03:03:57;16.15;;;11.30;;
39738;SDS011;25422;48.286;8.484;2024-03-22T03:06:23;20.73;;;13.30;;
39738;SDS011;25422;48.286;8.484;2024-03-22T03:08:49;17.23;;;12.77;;
39738;SDS011;25422;48.286;8.484;2024-03-22T03:11:15;23.27;;;12.55;;
39738;SDS011;25422;48.286;8.484;2024-03-22T03:13:40;17.95;;;11.70;;
39738;SDS011;25422;48.286;8.484;2024-03-22T03:16:06;17.33;;;12.70;;
39738;SDS011;25422;48.286;8.484;2024-03-22T03:18:31;18.58;;;12.38;;
39738;SDS011;25422;48.286;8.484;2024-03-22T03:20:57;17.85;;;11.90;;
39738;SDS011;25422;48.286;8.484;2024-03-22T03:23:22;19.25;;;11.82;;
39738;SDS011;25422;48.286;8.484;2024-03-22T03:25:48;18.55;;;12.80;;
39738;SDS011;25422;48.286;8.484;2024-03-22T03:28:13;17.67;;;11.02;;
39738;SDS011;25422;48.286;8.484;2024-03-22T03:30:39;16.17;;;11.20;;
39738;SDS011;25422;48.286;8.484;2024-03-22T03:33:04;21.48;;;12.63;;
39738;SDS011;25422;48.286;8.484;2024-03-22T03:35:30;18.30;;;11.60;;
39738;SDS011;25422;48.286;8.484;2024-03-22T03:37:56;23.15;;;13.52;;
39738;SDS011;25422;48.286;8.484;2024-03-22T03:40:21;21.27;;;13.05;;
39738;SDS011;25422;48.286;8.484;2024-03-22T03:42:49;21.60;;;13.32;;
39738;SDS011;25422;48.286;8.484;2024-03-22T03:45:15;18.38;;;12.88;;
39738;SDS011;25422;48.286;8.484;2024-03-22T03:47:40;21.70;;;13.45;;
39738;SDS011;25422;48.286;8.484;2024-03-22T03:50:06;23.25;;;13.45;;
39738;SDS011;25422;48.286;8.484;2024-03-22T03:52:32;23.08;;;13.75;;
39738;SDS011;25422;48.286;8.484;2024-03-22T03:54:57;19.52;;;13.68;;
39738;SDS011;25422;48.286;8.484;2024-03-22T03:57:22;22.13;;;13.68;;
39738;SDS011;25422;48.286;8.484;2024-03-22T03:59:48;23.35;;;13.45;;
39738;SDS011;25422;48.286;8.484;2024-03-22T04:02:13;19.08;;;13.88;;
39738;SDS011;25422;48.286;8.484;2024-03-22T04:04:39;20.02;;;13.25;;
39738;SDS011;25422;48.286;8.484;2024-03-22T04:07:04;21.80;;;13.63;;
39738;SDS011;25422;48.286;8.484;2024-03-22T04:09:30;20.33;;;13.05;;
39738;SDS011;25422;48.286;8.484;2024-03-22T04:11:56;23.95;;;13.10;;
39738;SDS011;25422;48.286;8.484;2024-03-22T04:14:24;18.45;;;12.55;;
39738;SDS011;25422;48.286;8.484;2024-03-22T04:16:50;22.50;;;13.27;;
39738;SDS011;25422;48.286;8.484;2024-03-22T04:19:15;19.58;;;13.50;;
39738;SDS011;25422;48.286;8.484;2024-03-22T04:21:41;19.85;;;13.40;;
39738;SDS011;25422;48.286;8.484;2024-03-22T04:24:06;17.65;;;12.65;;
39738;SDS011;25422;48.286;8.484;2024-03-22T04:26:32;23.30;;;13.65;;
39738;SDS011;25422;48.286;8.484;2024-03-22T04:28:57;19.67;;;13.18;;
39738;SDS011;25422;48.286;8.484;2024-03-22T04:31:22;21.60;;;13.63;;
39738;SDS011;25422;48.286;8.484;2024-03-22T04:33:48;20.20;;;14.10;;
39738;SDS011;25422;48.286;8.484;2024-03-22T04:36:13;22.10;;;15.13;;
39738;SDS011;25422;48.286;8.484;2024-03-22T04:38:40;24.55;;;15.43;;
39738;SDS011;25422;48.286;8.484;2024-03-22T04:41:06;25.33;;;15.40;;
39738;SDS011;25422;48.286;8.484;2024-03-22T04:43:31;24.55;;;15.85;;
39738;SDS011;25422;48.286;8.484;2024-03-22T04:45:56;25.33;;;15.48;;
39738;SDS011;25422;48.286;8.484;2024-03-22T04:48:23;26.92;;;15.25;;
39738;SDS011;25422;48.286;8.484;2024-03-22T04:50:52;25.98;;;15.00;;
39738;SDS011;25422;48.286;8.484;2024-03-22T04:53:18;21.75;;;14.80;;
39738;SDS011;25422;48.286;8.484;2024-03-22T04:55:46;29.08;;;15.52;;
39738;SDS011;25422;48.286;8.484;2024-03-22T04:58:13;25.65;;;15.68;;
39738;SDS011;25422;48.286;8.484;2024-03-22T05:00:39;25.20;;;15.20;;
39738;SDS011;25422;48.286;8.484;2024-03-22T05:03:05;27.50;;;16.67;;
39738;SDS011;25422;48.286;8.484;2024-03-22T05:05:31;22.30;;;16.70;;
39738;SDS011;25422;48.286;8.484;2024-03-22T05:07:56;26.70;;;15.35;;
39738;SDS011;25422;48.286;8.484;2024-03-22T05:10:22;19.90;;;13.35;;
39738;SDS011;25422;48.286;8.484;2024-03-22T05:12:47;19.52;;;12.85;;
39738;SDS011;25422;48.286;8.484;2024-03-22T05:15:12;24.00;;;13.23;;
39738;SDS011;25422;48.286;8.484;2024-03-22T05:17:38;21.00;;;13.38;;
39738;SDS011;25422;48.286;8.484;2024-03-22T05:20:04;21.52;;;13.23;;
39738;SDS011;25422;48.286;8.484;2024-03-22T05:22:33;22.83;;;13.43;;
39738;SDS011;25422;48.286;8.484;2024-03-22T05:24:58;22.88;;;14.73;;
39738;SDS011;25422;48.286;8.484;2024-03-22T05:27:24;26.20;;;15.77;;
39738;SDS011;25422;48.286;8.484;2024-03-22T05:29:49;20.58;;;13.88;;
39738;SDS011;25422;48.286;8.484;2024-03-22T05:32:14;20.98;;;13.57;;
39738;SDS011;25422;48.286;8.484;2024-03-22T05:34:40;22.98;;;13.80;;
39738;SDS011;25422;48.286;8.484;2024-03-22T05:37:05;20.90;;;13.88;;
39738;SDS011;25422;48.286;8.484;2024-03-22T05:39:31;23.67;;;13.73;;
39738;SDS011;25422;48.286;8.484;2024-03-22T05:41:56;22.88;;;14.30;;
39738;SDS011;25422;48.286;8.484;2024-03-22T05:44:22;24.80;;;14.15;;
39738;SDS011;25422;48.286;8.484;2024-03-22T05:46:47;25.88;;;14.80;;
39738;SDS011;25422;48.286;8.484;2024-03-22T05:49:13;20.50;;;13.27;;
39738;SDS011;25422;48.286;8.484;2024-03-22T05:51:38;25.15;;;15.27;;
39738;SDS011;25422;48.286;8.484;2024-03-22T05:54:04;23.67;;;14.38;;
39738;SDS011;25422;48.286;8.484;2024-03-22T05:56:29;22.73;;;14.77;;
39738;SDS011;25422;48.286;8.484;2024-03-22T05:58:55;24.52;;;15.32;;
39738;SDS011;25422;48.286;8.484;2024-03-22T06:01:20;26.65;;;14.93;;
39738;SDS011;25422;48.286;8.484;2024-03-22T06:03:46;23.85;;;14.70;;
39738;SDS011;25422;48.286;8.484;2024-03-22T06:06:11;24.58;;;14.18;;
39738;SDS011;25422;48.286;8.484;2024-03-22T06:08:37;19.83;;;14.70;;
39738;SDS011;25422;48.286;8.484;2024-03-22T06:11:05;20.63;;;13.88;;
39738;SDS011;25422;48.286;8.484;2024-03-22T06:13:32;24.85;;;15.10;;
39738;SDS011;25422;48.286;8.484;2024-03-22T06:15:58;21.17;;;14.00;;
39738;SDS011;25422;48.286;8.484;2024-03-22T06:18:23;24.27;;;13.88;;
39738;SDS011;25422;48.286;8.484;2024-03-22T06:20:48;24.10;;;13.52;;
39738;SDS011;25422;48.286;8.484;2024-03-22T06:23:14;21.92;;;12.85;;
39738;SDS011;25422;48.286;8.484;2024-03-22T06:25:39;27.20;;;12.65;;
39738;SDS011;25422;48.286;8.484;2024-03-22T06:28:05;17.30;;;12.20;;
39738;SDS011;25422;48.286;8.484;2024-03-22T06:30:30;20.50;;;13.80;;
39738;SDS011;25422;48.286;8.484;2024-03-22T06:32:56;23.00;;;14.00;;
39738;SDS011;25422;48.286;8.484;2024-03-22T06:35:21;23.90;;;14.82;;
39738;SDS011;25422;48.286;8.484;2024-03-22T06:37:47;23.90;;;13.00;;
39738;SDS011;25422;48.286;8.484;2024-03-22T06:40:13;19.00;;;12.30;;
39738;SDS011;25422;48.286;8.484;2024-03-22T06:42:40;16.10;;;11.55;;
39738;SDS011;25422;48.286;8.484;2024-03-22T06:45:05;17.35;;;11.25;;
39738;SDS011;25422;48.286;8.484;2024-03-22T06:47:31;15.73;;;10.13;;
39738;SDS011;25422;48.286;8.484;2024-03-22T06:49:57;13.00;;;9.27;;
39738;SDS011;25422;48.286;8.484;2024-03-22T06:52:23;13.35;;;9.57;;
39738;SDS011;25422;48.286;8.484;2024-03-22T06:54:48;17.95;;;10.45;;
39738;SDS011;25422;48.286;8.484;2024-03-22T06:57:13;11.93;;;9.13;;
39738;SDS011;25422;48.286;8.484;2024-03-22T06:59:39;15.80;;;9.73;;
39738;SDS011;25422;48.286;8.484;2024-03-22T07:02:04;15.90;;;9.85;;
39738;SDS011;25422;48.286;8.484;2024-03-22T07:04:30;16.55;;;9.60;;
39738;SDS011;25422;48.286;8.484;2024-03-22T07:06:55;14.90;;;8.45;;
39738;SDS011;25422;48.286;8.484;2024-03-22T07:09:21;10.82;;;8.02;;
39738;SDS011;25422;48.286;8.484;2024-03-22T07:11:46;11.52;;;8.30;;
39738;SDS011;25422;48.286;8.484;2024-03-22T07:14:12;15.63;;;9.32;;
39738;SDS011;25422;48.286;8.484;2024-03-22T07:16:37;19.23;;;12.07;;
39738;SDS011;25422;48.286;8.484;2024-03-22T07:19:03;20.02;;;13.45;;
39738;SDS011;25422;48.286;8.484;2024-03-22T07:21:29;24.55;;;14.00;;
39738;SDS011;25422;48.286;8.484;2024-03-22T07:23:54;19.70;;;12.77;;
39738;SDS011;25422;48.286;8.484;2024-03-22T07:26:20;21.88;;;13.35;;
39738;SDS011;25422;48.286;8.484;2024-03-22T07:28:45;19.58;;;13.50;;
39738;SDS011;25422;48.286;8.484;2024-03-22T07:31:11;19.38;;;13.10;;
39738;SDS011;25422;48.286;8.484;2024-03-22T07:33:36;18.27;;;10.73;;
39738;SDS011;25422;48.286;8.484;2024-03-22T07:36:04;18.15;;;11.52;;
39738;SDS011;25422;48.286;8.484;2024-03-22T07:38:30;20.42;;;11.32;;
39738;SDS011;25422;48.286;8.484;2024-03-22T07:40:55;19.63;;;11.73;;
39738;SDS011;25422;48.286;8.484;2024-03-22T07:43:21;19.23;;;11.80;;
39738;SDS011;25422;48.286;8.484;2024-03-22T07:45:46;20.52;;;12.13;;
39738;SDS011;25422;48.286;8.484;2024-03-22T07:48:12;18.42;;;9.73;;
39738;SDS011;25422;48.286;8.484;2024-03-22T07:50:37;18.00;;;8.70;;
39738;SDS011;25422;48.286;8.484;2024-03-22T07:53:03;12.65;;;7.20;;
39738;SDS011;25422;48.286;8.484;2024-03-22T07:55:28;12.70;;;8.68;;
39738;SDS011;25422;48.286;8.484;2024-03-22T07:57:54;13.13;;;8.05;;
39738;SDS011;25422;48.286;8.484;2024-03-22T08:00:19;10.73;;;6.75;;
39738;SDS011;25422;48.286;8.484;2024-03-22T08:02:45;9.55;;;6.40;;
39738;SDS011;25422;48.286;8.484;2024-03-22T08:05:10;11.32;;;6.65;;
39738;SDS011;25422;48.286;8.484;2024-03-22T08:07:35;8.57;;;6.03;;
39738;SDS011;25422;48.286;8.484;2024-03-22T08:10:01;10.27;;;6.78;;
39738;SDS011;25422;48.286;8.484;2024-03-22T08:12:27;14.05;;;7.20;;
39738;SDS011;25422;48.286;8.484;2024-03-22T08:14:53;9.05;;;6.80;;
39738;SDS011;25422;48.286;8.484;2024-03-22T08:17:19;9.98;;;6.78;;
39738;SDS011;25422;48.286;8.484;2024-03-22T08:19:44;10.50;;;6.68;;
39738;SDS011;25422;48.286;8.484;2024-03-22T08:22:10;8.48;;;6.25;;
39738;SDS011;25422;48.286;8.484;2024-03-22T08:24:36;11.27;;;8.07;;
39738;SDS011;25422;48.286;8.484;2024-03-22T08:27:02;17.08;;;8.00;;
39738;SDS011;25422;48.286;8.484;2024-03-22T08:29:28;13.45;;;8.20;;
39738;SDS011;25422;48.286;8.484;2024-03-22T08:31:54;12.20;;;8.25;;
39738;SDS011;25422;48.286;8.484;2024-03-22T08:34:23;14.60;;;8.40;;
39738;SDS011;25422;48.286;8.484;2024-03-22T08:36:48;17.23;;;8.32;;
39738;SDS011;25422;48.286;8.484;2024-03-22T08:39:13;13.40;;;7.68;;
39738;SDS011;25422;48.286;8.484;2024-03-22T08:41:40;16.40;;;9.00;;
39738;SDS011;25422;48.286;8.484;2024-03-22T08:44:05;11.57;;;7.60;;
39738;SDS011;25422;48.286;8.484;2024-03-22T08:46:32;10.52;;;7.20;;
39738;SDS011;25422;48.286;8.484;2024-03-22T08:48:57;13.25;;;7.03;;
39738;SDS011;25422;48.286;8.484;2024-03-22T08:51:23;13.02;;;7.53;;
39738;SDS011;25422;48.286;8.484;2024-03-22T08:53:48;10.18;;;7.05;;
39738;SDS011;25422;48.286;8.484;2024-03-22T08:56:14;13.23;;;7.32;;
39738;SDS011;25422;48.286;8.484;2024-03-22T08:58:39;8.88;;;6.47;;
39738;SDS011;25422;48.286;8.484;2024-03-22T09:01:05;10.68;;;6.90;;
39738;SDS011;25422;48.286;8.484;2024-03-22T09:03:31;9.55;;;7.30;;
39738;SDS011;25422;48.286;8.484;2024-03-22T09:05:56;9.40;;;7.03;;
39738;SDS011;25422;48.286;8.484;2024-03-22T09:08:22;13.23;;;7.07;;
39738;SDS011;25422;48.286;8.484;2024-03-22T09:10:47;11.80;;;7.18;;
39738;SDS011;25422;48.286;8.484;2024-03-22T09:13:13;10.60;;;6.80;;
39738;SDS011;25422;48.286;8.484;2024-03-22T09:15:39;8.73;;;7.38;;
39738;SDS011;25422;48.286;8.484;2024-03-22T09:18:04;9.98;;;6.78;;
39738;SDS011;25422;48.286;8.484;2024-03-22T09:20:30;10.38;;;6.68;;
39738;SDS011;25422;48.286;8.484;2024-03-22T09:22:55;9.15;;;6.20;;
39738;SDS011;25422;48.286;8.484;2024-03-22T09:25:22;8.27;;;6.38;;
39738;SDS011;25422;48.286;8.484;2024-03-22T09:27:49;10.60;;;7.07;;
39738;SDS011;25422;48.286;8.484;2024-03-22T09:30:15;10.73;;;6.53;;
39738;SDS011;25422;48.286;8.484;2024-03-22T09:32:40;10.98;;;6.53;;
39738;SDS011;25422;48.286;8.484;2024-03-22T09:35:07;9.45;;;5.82;;
39738;SDS011;25422;48.286;8.484;2024-03-22T09:37:33;8.82;;;5.53;;
39738;SDS011;25422;48.286;8.484;2024-03-22T09:39:58;6.50;;;5.70;;
39738;SDS011;25422;48.286;8.484;2024-03-22T09:42:24;8.52;;;5.70;;
39738;SDS011;25422;48.286;8.484;2024-03-22T09:44:51;7.40;;;5.03;;
39738;SDS011;25422;48.286;8.484;2024-03-22T09:47:16;8.43;;;5.65;;
39738;SDS011;25422;48.286;8.484;2024-03-22T09:49:46;7.85;;;4.78;;
39738;SDS011;25422;48.286;8.484;2024-03-22T09:52:13;10.13;;;4.82;;
39738;SDS011;25422;48.286;8.484;2024-03-22T09:54:42;5.85;;;4.45;;
39738;SDS011;25422;48.286;8.484;2024-03-22T09:57:13;9.25;;;4.70;;
39738;SDS011;25422;48.286;8.484;2024-03-22T09:59:43;6.13;;;4.18;;
39738;SDS011;25422;48.286;8.484;2024-03-22T10:02:12;4.83;;;4.10;;
39738;SDS011;25422;48.286;8.484;2024-03-22T10:04:38;5.40;;;3.78;;
39738;SDS011;25422;48.286;8.484;2024-03-22T10:07:06;5.07;;;3.17;;
39738;SDS011;25422;48.286;8.484;2024-03-22T10:09:33;6.82;;;2.97;;
39738;SDS011;25422;48.286;8.484;2024-03-22T10:11:58;6.07;;;3.20;;
39738;SDS011;25422;48.286;8.484;2024-03-22T10:14:24;5.57;;;3.00;;
39738;SDS011;25422;48.286;8.484;2024-03-22T10:16:55;5.75;;;3.20;;
39738;SDS011;25422;48.286;8.484;2024-03-22T10:19:21;5.25;;;3.13;;
39738;SDS011;25422;48.286;8.484;2024-03-22T10:22:08;6.65;;;3.03;;
39738;SDS011;25422;48.286;8.484;2024-03-22T10:24:32;7.82;;;3.00;;
39738;SDS011;25422;48.286;8.484;2024-03-22T10:30:03;4.78;;;2.72;;
39738;SDS011;25422;48.286;8.484;2024-03-22T10:32:33;5.15;;;3.10;;
39738;SDS011;25422;48.286;8.484;2024-03-22T10:35:00;8.40;;;2.90;;
39738;SDS011;25422;48.286;8.484;2024-03-22T10:37:32;3.97;;;2.47;;
39738;SDS011;25422;48.286;8.484;2024-03-22T10:40:03;4.47;;;2.63;;
39738;SDS011;25422;48.286;8.484;2024-03-22T10:42:35;3.72;;;2.78;;
39738;SDS011;25422;48.286;8.484;2024-03-22T10:45:03;2.80;;;2.30;;
39738;SDS011;25422;48.286;8.484;2024-03-22T10:47:30;2.78;;;1.92;;
39738;SDS011;25422;48.286;8.484;2024-03-22T10:52:36;2.50;;;2.10;;
39738;SDS011;25422;48.286;8.484;2024-03-22T10:55:08;3.10;;;1.75;;
39738;SDS011;25422;48.286;8.484;2024-03-22T10:57:38;3.50;;;1.67;;
39738;SDS011;25422;48.286;8.484;2024-03-22T11:00:08;4.32;;;1.95;;
39738;SDS011;25422;48.286;8.484;2024-03-22T11:02:37;4.43;;;1.85;;
39738;SDS011;25422;48.286;8.484;2024-03-22T11:05:06;2.53;;;1.80;;
39738;SDS011;25422;48.286;8.484;2024-03-22T11:07:32;3.70;;;1.90;;
39738;SDS011;25422;48.286;8.484;2024-03-22T11:09:58;4.88;;;2.85;;
39738;SDS011;25422;48.286;8.484;2024-03-22T11:12:26;7.18;;;2.20;;
39738;SDS011;25422;48.286;8.484;2024-03-22T11:14:52;3.53;;;1.80;;
39738;SDS011;25422;48.286;8.484;2024-03-22T11:17:18;2.78;;;2.10;;
39738;SDS011;25422;48.286;8.484;2024-03-22T11:19:44;4.85;;;2.15;;
39738;SDS011;25422;48.286;8.484;2024-03-22T11:22:10;2.88;;;1.60;;
39738;SDS011;25422;48.286;8.484;2024-03-22T11:24:40;2.63;;;1.67;;
39738;SDS011;25422;48.286;8.484;2024-03-22T11:27:06;7.03;;;2.45;;
39738;SDS011;25422;48.286;8.484;2024-03-22T11:29:31;1.90;;;1.67;;
39738;SDS011;25422;48.286;8.484;2024-03-22T11:31:57;2.10;;;1.50;;
39738;SDS011;25422;48.286;8.484;2024-03-22T11:34:22;2.05;;;1.60;;
39738;SDS011;25422;48.286;8.484;2024-03-22T11:36:48;4.32;;;1.80;;
39738;SDS011;25422;48.286;8.484;2024-03-22T11:39:15;2.55;;;1.83;;
39738;SDS011;25422;48.286;8.484;2024-03-22T11:41:40;2.47;;;1.52;;
39738;SDS011;25422;48.286;8.484;2024-03-22T11:44:06;3.17;;;1.48;;
39738;SDS011;25422;48.286;8.484;2024-03-22T11:46:31;4.32;;;1.42;;
39738;SDS011;25422;48.286;8.484;2024-03-22T11:48:58;2.95;;;1.70;;
39738;SDS011;25422;48.286;8.484;2024-03-22T11:51:24;2.33;;;1.50;;
39738;SDS011;25422;48.286;8.484;2024-03-22T11:53:53;2.75;;;1.60;;
39738;SDS011;25422;48.286;8.484;2024-03-22T11:56:21;3.30;;;1.58;;
39738;SDS011;25422;48.286;8.484;2024-03-22T11:58:47;3.08;;;1.67;;
39738;SDS011;25422;48.286;8.484;2024-03-22T12:01:16;4.03;;;1.70;;
39738;SDS011;25422;48.286;8.484;2024-03-22T12:03:45;1.97;;;1.30;;
39738;SDS011;25422;48.286;8.484;2024-03-22T12:06:12;2.00;;;1.40;;
39738;SDS011;25422;48.286;8.484;2024-03-22T12:08:38;2.10;;;1.50;;
39738;SDS011;25422;48.286;8.484;2024-03-22T12:11:06;5.50;;;1.90;;
39738;SDS011;25422;48.286;8.484;2024-03-22T12:13:33;2.10;;;1.40;;
39738;SDS011;25422;48.286;8.484;2024-03-22T12:15:58;3.28;;;1.50;;
39738;SDS011;25422;48.286;8.484;2024-03-22T12:18:24;4.20;;;1.95;;
39738;SDS011;25422;48.286;8.484;2024-03-22T12:20:49;3.85;;;1.70;;
39738;SDS011;25422;48.286;8.484;2024-03-22T12:23:15;2.65;;;1.50;;
39738;SDS011;25422;48.286;8.484;2024-03-22T12:25:40;1.50;;;1.20;;
39738;SDS011;25422;48.286;8.484;2024-03-22T12:28:05;3.10;;;1.30;;
39738;SDS011;25422;48.286;8.484;2024-03-22T12:30:31;5.13;;;1.50;;
39738;SDS011;25422;48.286;8.484;2024-03-22T12:32:57;3.40;;;1.30;;
39738;SDS011;25422;48.286;8.484;2024-03-22T12:35:22;2.30;;;1.73;;
39738;SDS011;25422;48.286;8.484;2024-03-22T12:37:48;3.53;;;1.45;;
39738;SDS011;25422;48.286;8.484;2024-03-22T12:40:13;3.45;;;1.52;;
39738;SDS011;25422;48.286;8.484;2024-03-22T12:42:39;2.13;;;1.80;;
39738;SDS011;25422;48.286;8.484;2024-03-22T12:45:05;1.40;;;1.30;;
39738;SDS011;25422;48.286;8.484;2024-03-22T12:47:32;2.92;;;1.25;;
39738;SDS011;25422;48.286;8.484;2024-03-22T12:49:58;3.13;;;1.40;;
39738;SDS011;25422;48.286;8.484;2024-03-22T12:52:23;2.75;;;1.48;;
39738;SDS011;25422;48.286;8.484;2024-03-22T12:54:49;3.60;;;1.48;;
39738;SDS011;25422;48.286;8.484;2024-03-22T12:57:14;4.22;;;1.65;;
39738;SDS011;25422;48.286;8.484;2024-03-22T12:59:39;1.85;;;1.63;;
39738;SDS011;25422;48.286;8.484;2024-03-22T13:02:05;2.28;;;1.60;;
39738;SDS011;25422;48.286;8.484;2024-03-22T13:04:31;4.53;;;1.50;;
39738;SDS011;25422;48.286;8.484;2024-03-22T13:06:56;2.55;;;1.73;;
39738;SDS011;25422;48.286;8.484;2024-03-22T13:09:22;1.58;;;1.35;;
39738;SDS011;25422;48.286;8.484;2024-03-22T13:11:47;2.20;;;1.27;;
39738;SDS011;25422;48.286;8.484;2024-03-22T13:14:14;4.75;;;1.20;;
39738;SDS011;25422;48.286;8.484;2024-03-22T13:16:40;5.13;;;1.15;;
39738;SDS011;25422;48.286;8.484;2024-03-22T13:19:06;4.07;;;1.70;;
39738;SDS011;25422;48.286;8.484;2024-03-22T13:21:33;2.28;;;1.05;;
39738;SDS011;25422;48.286;8.484;2024-03-22T13:23:59;2.92;;;1.27;;
39738;SDS011;25422;48.286;8.484;2024-03-22T13:26:24;2.28;;;1.40;;
39738;SDS011;25422;48.286;8.484;2024-03-22T13:28:50;4.78;;;1.65;;
39738;SDS011;25422;48.286;8.484;2024-03-22T13:31:16;4.43;;;1.50;;
39738;SDS011;25422;48.286;8.484;2024-03-22T13:33:42;3.92;;;1.23;;
39738;SDS011;25422;48.286;8.484;2024-03-22T13:36:07;2.08;;;1.40;;
39738;SDS011;25422;48.286;8.484;2024-03-22T13:38:33;5.45;;;1.58;;
39738;SDS011;25422;48.286;8.484;2024-03-22T13:40:59;3.00;;;1.25;;
39738;SDS011;25422;48.286;8.484;2024-03-22T13:43:26;4.07;;;1.50;;
39738;SDS011;25422;48.286;8.484;2024-03-22T13:45:52;5.82;;;1.55;;
39738;SDS011;25422;48.286;8.484;2024-03-22T13:48:22;1.92;;;1.40;;
39738;SDS011;25422;48.286;8.484;2024-03-22T13:50:52;1.75;;;1.65;;
39738;SDS011;25422;48.286;8.484;2024-03-22T13:53:18;1.77;;;1.58;;
39738;SDS011;25422;48.286;8.484;2024-03-22T13:55:47;5.28;;;1.98;;
39738;SDS011;25422;48.286;8.484;2024-03-22T13:58:13;6.35;;;1.50;;
39738;SDS011;25422;48.286;8.484;2024-03-22T14:00:38;3.60;;;1.60;;
39738;SDS011;25422;48.286;8.484;2024-03-22T14:03:04;1.67;;;1.58;;
39738;SDS011;25422;48.286;8.484;2024-03-22T14:05:29;5.57;;;1.52;;
39738;SDS011;25422;48.286;8.484;2024-03-22T14:07:56;2.47;;;1.40;;
39738;SDS011;25422;48.286;8.484;2024-03-22T14:10:22;1.55;;;1.45;;
39738;SDS011;25422;48.286;8.484;2024-03-22T14:12:48;3.67;;;1.67;;
39738;SDS011;25422;48.286;8.484;2024-03-22T14:15:14;2.15;;;1.45;;
39738;SDS011;25422;48.286;8.484;2024-03-22T14:17:39;2.67;;;1.42;;
39738;SDS011;25422;48.286;8.484;2024-03-22T14:20:05;4.97;;;1.30;;
39738;SDS011;25422;48.286;8.484;2024-03-22T14:22:39;5.47;;;1.35;;
39738;SDS011;25422;48.286;8.484;2024-03-22T14:25:06;3.50;;;1.42;;
39738;SDS011;25422;48.286;8.484;2024-03-22T14:27:32;2.80;;;1.60;;
39738;SDS011;25422;48.286;8.484;2024-03-22T14:29:58;4.47;;;1.33;;
39738;SDS011;25422;48.286;8.484;2024-03-22T14:32:24;3.55;;;1.63;;